createdAt,value
2022-10-08T00:00:00.369Z,29.38
2022-10-08T00:02:28.730Z,28.02
2022-10-08T00:04:56.425Z,30.80
2022-10-08T00:07:24.394Z,31.65
2022-10-08T00:09:52.053Z,26.25
2022-10-08T00:12:19.698Z,22.88
2022-10-08T00:14:48.714Z,23.63
2022-10-08T00:17:16.397Z,23.52
2022-10-08T00:19:44.517Z,26.00
2022-10-08T00:22:12.150Z,26.52
2022-10-08T00:24:40.128Z,23.73
2022-10-08T00:27:07.788Z,25.75
2022-10-08T00:29:35.402Z,24.23
2022-10-08T00:32:04.655Z,25.25
2022-10-08T00:34:32.355Z,23.55
2022-10-08T00:37:00.039Z,22.80
2022-10-08T00:39:27.713Z,26.10
2022-10-08T00:41:56.919Z,25.30
2022-10-08T00:44:55.523Z,25.02
2022-10-08T00:47:31.286Z,22.52
2022-10-08T00:50:00.607Z,22.63
2022-10-08T00:52:33.604Z,22.20
2022-10-08T00:55:01.915Z,23.52
2022-10-08T00:57:30.165Z,22.17
2022-10-08T00:59:57.832Z,27.60
2022-10-08T01:02:26.921Z,26.30
2022-10-08T01:04:54.637Z,26.63
2022-10-08T01:07:25.791Z,36.78
2022-10-08T01:09:57.713Z,29.15
2022-10-08T01:12:37.319Z,36.70
2022-10-08T01:15:09.573Z,24.27
2022-10-08T01:20:20.994Z,23.63
2022-10-08T01:23:04.472Z,40.70
2022-10-08T01:25:38.006Z,33.20
2022-10-08T01:28:12.379Z,28.17
2022-10-08T01:30:44.818Z,28.58
2022-10-08T01:33:14.856Z,24.70
2022-10-08T01:35:45.691Z,27.48
2022-10-08T01:38:16.383Z,22.60
2022-10-08T01:40:45.559Z,25.33
2022-10-08T01:43:17.031Z,23.40
2022-10-08T01:45:48.787Z,27.58
2022-10-08T01:48:20.720Z,22.55
2022-10-08T01:50:54.315Z,30.00
2022-10-08T01:53:23.460Z,28.58
2022-10-08T01:55:54.038Z,27.83
2022-10-08T01:58:28.974Z,27.30
2022-10-08T02:00:58.310Z,22.58
2022-10-08T02:03:26.012Z,22.83
2022-10-08T02:05:55.492Z,24.92
2022-10-08T02:08:24.508Z,20.20
2022-10-08T02:10:52.963Z,21.63
2022-10-08T02:13:22.852Z,20.92
2022-10-08T02:15:55.936Z,20.27
2022-10-08T02:18:31.101Z,20.88
2022-10-08T02:21:00.858Z,20.88
2022-10-08T02:23:30.970Z,20.33
2022-10-08T02:26:00.096Z,20.40
2022-10-08T02:28:32.938Z,19.80
2022-10-08T02:31:05.998Z,20.08
2022-10-08T02:33:37.864Z,18.88
2022-10-08T02:36:08.163Z,19.85
2022-10-08T02:38:38.048Z,20.08
2022-10-08T02:41:06.865Z,18.95
2022-10-08T02:43:38.642Z,19.38
2022-10-08T02:46:10.361Z,20.15
2022-10-08T02:48:42.253Z,20.50
2022-10-08T02:51:13.776Z,19.70
2022-10-08T02:53:41.770Z,20.98
2022-10-08T02:56:13.961Z,20.38
2022-10-08T03:01:15.163Z,18.55
2022-10-08T03:03:47.247Z,18.20
2022-10-08T03:06:15.946Z,16.77
2022-10-08T03:08:49.144Z,18.13
2022-10-08T03:11:17.356Z,19.05
2022-10-08T03:13:47.909Z,18.42
2022-10-08T03:16:19.227Z,18.33
2022-10-08T03:18:47.221Z,20.03
2022-10-08T03:21:15.921Z,18.45
2022-10-08T03:23:43.672Z,18.83
2022-10-08T03:26:11.327Z,18.58
2022-10-08T03:28:39.026Z,19.65
2022-10-08T03:31:08.311Z,18.30
2022-10-08T03:33:36.066Z,19.15
2022-10-08T03:36:03.780Z,18.98
2022-10-08T03:38:31.425Z,18.35
2022-10-08T03:40:59.894Z,17.75
2022-10-08T03:43:32.123Z,17.63
2022-10-08T03:48:29.331Z,17.17
2022-10-08T03:50:58.696Z,16.05
2022-10-08T03:53:27.297Z,16.55
2022-10-08T03:55:55.347Z,15.98
2022-10-08T03:58:23.042Z,17.30
2022-10-08T04:00:58.235Z,16.73
2022-10-08T04:03:26.392Z,17.70
2022-10-08T04:05:55.376Z,16.58
2022-10-08T04:08:23.242Z,16.70
2022-10-08T04:10:50.889Z,16.60
2022-10-08T04:13:19.134Z,17.65
2022-10-08T04:15:48.407Z,16.83
2022-10-08T04:18:16.189Z,16.65
2022-10-08T04:20:44.394Z,18.27
2022-10-08T04:23:13.428Z,18.08
2022-10-08T04:25:50.168Z,17.55
2022-10-08T04:28:17.875Z,16.73
2022-10-08T04:30:55.705Z,16.27
2022-10-08T04:33:23.523Z,16.52
2022-10-08T04:35:51.118Z,16.65
2022-10-08T04:38:20.338Z,17.02
2022-10-08T04:40:48.040Z,17.13
2022-10-08T04:43:16.536Z,16.52
2022-10-08T04:45:45.074Z,16.42
2022-10-08T04:48:12.865Z,15.63
2022-10-08T04:50:40.583Z,16.13
2022-10-08T04:53:08.486Z,15.25
2022-10-08T04:55:37.509Z,15.82
2022-10-08T04:58:05.136Z,14.45
2022-10-08T05:00:32.885Z,15.00
2022-10-08T05:03:00.668Z,14.18
2022-10-08T05:05:28.365Z,13.63
2022-10-08T05:07:56.826Z,14.05
2022-10-08T05:10:24.854Z,14.82
2022-10-08T05:12:53.877Z,15.05
2022-10-08T05:15:21.492Z,14.30
2022-10-08T05:17:49.103Z,14.25
2022-10-08T05:20:16.844Z,15.48
2022-10-08T05:22:44.739Z,14.52
2022-10-08T05:25:12.503Z,14.25
2022-10-08T05:27:40.208Z,14.43
2022-10-08T05:30:10.525Z,13.93
2022-10-08T05:32:38.149Z,15.27
2022-10-08T05:35:06.397Z,15.00
2022-10-08T05:37:34.278Z,14.75
2022-10-08T05:40:01.881Z,14.55
2022-10-08T05:42:29.543Z,15.27
2022-10-08T05:44:57.204Z,13.85
2022-10-08T05:47:26.341Z,14.43
2022-10-08T05:49:53.974Z,13.98
2022-10-08T05:52:21.637Z,14.50
2022-10-08T05:54:49.278Z,15.05
2022-10-08T05:57:16.966Z,15.35
2022-10-08T05:59:44.627Z,15.10
2022-10-08T06:02:12.444Z,14.85
2022-10-08T06:04:41.598Z,14.05
2022-10-08T06:07:09.260Z,14.40
2022-10-08T06:09:36.867Z,14.20
2022-10-08T06:12:04.552Z,15.20
2022-10-08T06:14:32.156Z,15.63
2022-10-08T06:16:59.799Z,14.93
2022-10-08T06:19:27.532Z,14.52
2022-10-08T06:21:56.535Z,15.23
2022-10-08T06:24:24.227Z,15.82
2022-10-08T06:26:51.857Z,16.00
2022-10-08T06:29:20.072Z,16.63
2022-10-08T06:31:47.798Z,16.15
2022-10-08T06:34:15.803Z,14.93
2022-10-08T06:36:43.477Z,15.30
2022-10-08T06:39:14.589Z,14.52
2022-10-08T06:41:42.465Z,16.65
2022-10-08T06:44:13.067Z,15.57
2022-10-08T06:46:40.863Z,14.65
2022-10-08T06:49:08.577Z,15.95
2022-10-08T06:51:36.224Z,15.23
2022-10-08T06:54:07.989Z,15.10
2022-10-08T06:56:38.479Z,14.02
2022-10-08T06:59:06.715Z,15.32
2022-10-08T07:01:35.420Z,13.63
2022-10-08T07:04:04.420Z,14.10
2022-10-08T07:06:32.314Z,13.52
2022-10-08T07:09:01.381Z,14.45
2022-10-08T07:11:30.219Z,13.43
2022-10-08T07:13:59.642Z,13.65
2022-10-08T07:16:28.730Z,14.73
2022-10-08T07:18:58.396Z,13.35
2022-10-08T07:21:26.733Z,13.63
2022-10-08T07:23:54.328Z,14.02
2022-10-08T07:26:23.316Z,13.18
2022-10-08T07:28:52.386Z,13.55
2022-10-08T07:31:23.072Z,13.57
2022-10-08T07:33:50.887Z,13.57
2022-10-08T07:36:19.885Z,14.45
2022-10-08T07:38:48.311Z,14.23
2022-10-08T07:41:16.262Z,14.40
2022-10-08T07:43:44.334Z,14.35
2022-10-08T07:46:14.126Z,14.38
2022-10-08T07:48:43.212Z,13.45
2022-10-08T07:51:11.956Z,12.98
2022-10-08T07:53:39.881Z,14.10
2022-10-08T07:56:08.628Z,14.10
2022-10-08T07:58:36.491Z,14.73
2022-10-08T08:01:06.169Z,14.13
2022-10-08T08:03:34.102Z,13.90
2022-10-08T08:06:03.894Z,14.30
2022-10-08T08:08:31.741Z,14.25
2022-10-08T08:10:59.966Z,14.25
2022-10-08T08:13:31.913Z,15.00
2022-10-08T08:16:06.450Z,14.13
2022-10-08T08:18:35.563Z,14.80
2022-10-08T08:21:06.022Z,14.35
2022-10-08T08:23:34.898Z,13.80
2022-10-08T08:26:03.171Z,13.77
2022-10-08T08:28:31.222Z,13.77
2022-10-08T08:31:08.253Z,14.55
2022-10-08T08:33:36.067Z,14.75
2022-10-08T08:36:05.660Z,14.25
2022-10-08T08:38:35.753Z,14.18
2022-10-08T08:41:12.778Z,14.50
2022-10-08T08:43:41.901Z,14.20
2022-10-08T08:46:10.954Z,13.63
2022-10-08T08:48:39.519Z,14.57
2022-10-08T08:51:08.559Z,13.90
2022-10-08T08:53:36.298Z,13.65
2022-10-08T08:56:06.472Z,13.40
2022-10-08T08:58:38.858Z,13.88
2022-10-08T09:01:15.295Z,14.45
2022-10-08T09:03:45.514Z,14.02
2022-10-08T09:06:17.058Z,14.48
2022-10-08T09:08:47.472Z,13.35
2022-10-08T09:11:17.397Z,14.18
2022-10-08T09:13:49.094Z,14.23
2022-10-08T09:16:17.566Z,14.18
2022-10-08T09:18:47.761Z,12.43
2022-10-08T09:21:17.195Z,14.05
2022-10-08T09:23:45.208Z,14.55
2022-10-08T09:26:16.848Z,14.00
2022-10-08T09:28:46.691Z,13.45
2022-10-08T09:31:37.690Z,13.82
2022-10-08T09:34:16.054Z,13.10
2022-10-08T09:36:46.768Z,13.45
2022-10-08T09:39:18.765Z,13.05
2022-10-08T09:41:47.517Z,13.60
2022-10-08T09:44:18.849Z,13.43
2022-10-08T09:46:46.846Z,13.40
2022-10-08T09:49:32.172Z,13.90
2022-10-08T09:52:05.121Z,13.40
2022-10-08T09:54:36.600Z,13.82
2022-10-08T09:57:04.852Z,13.48
2022-10-08T09:59:38.293Z,14.55
2022-10-08T10:02:10.116Z,14.43
2022-10-08T10:04:40.368Z,13.77
2022-10-08T10:07:09.348Z,14.07
2022-10-08T10:09:42.054Z,14.20
2022-10-08T10:12:14.963Z,13.95
2022-10-08T10:14:45.023Z,14.27
2022-10-08T10:17:18.109Z,14.50
2022-10-08T10:19:50.830Z,14.90
2022-10-08T10:22:23.027Z,14.77
2022-10-08T10:27:24.945Z,14.65
2022-10-08T10:30:04.904Z,15.45
2022-10-08T10:32:36.455Z,14.52
2022-10-08T10:35:07.640Z,15.20
2022-10-08T10:37:41.498Z,14.98
2022-10-08T10:40:33.990Z,14.68
2022-10-08T10:45:41.153Z,14.98
2022-10-08T10:48:10.440Z,14.60
2022-10-08T10:50:42.019Z,16.42
2022-10-08T10:53:17.472Z,14.90
2022-10-08T10:55:54.726Z,15.13
2022-10-08T10:58:31.977Z,15.50
2022-10-08T11:01:05.910Z,15.35
2022-10-08T11:03:40.612Z,14.90
2022-10-08T11:06:32.020Z,14.43
2022-10-08T11:09:04.448Z,14.88
2022-10-08T11:11:36.155Z,15.07
2022-10-08T11:14:16.679Z,16.50
2022-10-08T11:16:53.802Z,16.35
2022-10-08T11:19:32.742Z,16.08
2022-10-08T11:22:08.228Z,15.77
2022-10-08T11:24:53.706Z,15.10
2022-10-08T11:27:29.093Z,15.45
2022-10-08T11:30:03.229Z,16.10
2022-10-08T11:32:31.600Z,15.77
2022-10-08T11:35:05.478Z,16.05
2022-10-08T11:37:36.132Z,15.68
2022-10-08T11:40:11.451Z,15.60
2022-10-08T11:42:48.567Z,15.55
2022-10-08T11:45:31.104Z,15.85
2022-10-08T11:48:00.011Z,15.80
2022-10-08T11:50:30.893Z,15.95
2022-10-08T11:53:01.797Z,17.25
2022-10-08T11:55:33.544Z,16.33
2022-10-08T11:58:08.091Z,16.08
2022-10-08T12:00:39.742Z,17.35
2022-10-08T12:05:50.586Z,15.90
2022-10-08T12:08:53.226Z,16.98
2022-10-08T12:11:54.199Z,16.30
2022-10-08T12:14:45.656Z,16.05
2022-10-08T12:17:13.580Z,17.80
2022-10-08T12:20:03.191Z,16.55
2022-10-08T12:22:45.094Z,15.77
2022-10-08T12:25:38.705Z,16.60
2022-10-08T12:28:52.318Z,15.82
2022-10-08T12:31:32.210Z,16.70
2022-10-08T12:34:02.040Z,16.20
2022-10-08T12:36:56.793Z,16.20
2022-10-08T12:39:32.836Z,16.73
2022-10-08T12:42:08.425Z,16.52
2022-10-08T12:44:45.135Z,15.88
2022-10-08T12:47:26.782Z,17.60
2022-10-08T12:49:58.105Z,16.13
2022-10-08T12:52:25.880Z,16.03
2022-10-08T12:54:55.264Z,15.38
2022-10-08T12:57:24.796Z,16.90
2022-10-08T12:59:52.529Z,16.73
2022-10-08T13:02:29.075Z,16.55
2022-10-08T13:04:59.912Z,16.05
2022-10-08T13:07:29.689Z,16.92
2022-10-08T13:09:59.647Z,16.60
2022-10-08T13:12:27.829Z,17.25
2022-10-08T13:15:05.220Z,17.35
2022-10-08T13:17:35.588Z,16.98
2022-10-08T13:20:16.863Z,16.75
2022-10-08T13:22:44.813Z,18.35
2022-10-08T13:25:35.133Z,17.45
2022-10-08T13:28:11.204Z,17.17
2022-10-08T13:30:38.909Z,17.90
2022-10-08T13:33:13.417Z,16.55
2022-10-08T13:35:41.800Z,17.88
2022-10-08T13:38:12.060Z,17.83
2022-10-08T13:40:39.674Z,18.00
2022-10-08T13:43:07.928Z,18.13
2022-10-08T13:45:37.661Z,18.33
2022-10-08T13:48:09.652Z,19.35
2022-10-08T13:50:37.291Z,19.75
2022-10-08T13:53:05.569Z,18.23
2022-10-08T13:55:34.979Z,19.20
2022-10-08T13:58:05.314Z,19.52
2022-10-08T14:00:35.619Z,21.27
2022-10-08T14:03:03.411Z,19.38
2022-10-08T14:05:34.400Z,19.90
2022-10-08T14:08:03.409Z,18.95
2022-10-08T14:10:31.356Z,18.58
2022-10-08T14:12:59.108Z,18.52
2022-10-08T14:15:26.727Z,18.95
2022-10-08T14:17:54.378Z,21.13
2022-10-08T14:20:22.044Z,20.08
2022-10-08T14:22:51.663Z,20.48
2022-10-08T14:25:22.499Z,20.27
2022-10-08T14:27:50.908Z,22.05
2022-10-08T14:30:19.405Z,20.58
2022-10-08T14:32:47.069Z,21.60
2022-10-08T14:35:14.985Z,19.95
2022-10-08T14:37:42.659Z,20.58
2022-10-08T14:40:16.557Z,22.60
2022-10-08T14:42:44.243Z,20.90
2022-10-08T14:45:12.343Z,21.58
2022-10-08T14:47:40.332Z,26.23
2022-10-08T14:50:09.790Z,26.95
2022-10-08T14:52:41.863Z,26.13
2022-10-08T14:55:14.068Z,24.13
2022-10-08T14:57:41.789Z,23.63
2022-10-08T15:00:10.287Z,24.85
2022-10-08T15:02:37.949Z,24.00
2022-10-08T15:05:06.263Z,23.85
2022-10-08T15:07:33.914Z,21.17
2022-10-08T15:10:01.549Z,20.30
2022-10-08T15:12:30.632Z,19.60
2022-10-08T15:14:58.288Z,19.33
2022-10-08T15:17:26.071Z,20.75
2022-10-08T15:19:54.123Z,19.08
2022-10-08T15:22:21.873Z,19.60
2022-10-08T15:24:49.553Z,18.25
2022-10-08T15:27:20.566Z,18.92
2022-10-08T15:29:50.085Z,18.67
2022-10-08T15:32:17.769Z,18.20
2022-10-08T15:34:45.447Z,18.40
2022-10-08T15:37:13.129Z,18.83
2022-10-08T15:39:40.806Z,17.98
2022-10-08T15:42:08.795Z,18.95
2022-10-08T15:44:36.457Z,19.52
2022-10-08T15:47:07.073Z,18.73
2022-10-08T15:49:36.547Z,19.73
2022-10-08T15:52:05.569Z,19.95
2022-10-08T15:54:35.683Z,18.98
2022-10-08T15:57:03.332Z,18.50
2022-10-08T15:59:31.013Z,18.75
2022-10-08T16:01:58.694Z,18.35
2022-10-08T16:04:28.042Z,18.98
2022-10-08T16:06:55.677Z,18.35
2022-10-08T16:09:23.833Z,18.30
2022-10-08T16:11:52.178Z,17.70
2022-10-08T16:14:20.939Z,18.15
2022-10-08T16:16:49.553Z,19.45
2022-10-08T16:19:18.830Z,20.15
2022-10-08T16:21:49.186Z,18.83
2022-10-08T16:24:16.962Z,19.55
2022-10-08T16:26:44.910Z,20.05
2022-10-08T16:29:14.562Z,20.88
2022-10-08T16:31:43.412Z,22.25
2022-10-08T16:34:14.529Z,21.73
2022-10-08T16:36:42.561Z,21.83
2022-10-08T16:39:13.470Z,21.20
2022-10-08T16:41:41.203Z,20.85
2022-10-08T16:44:12.565Z,22.15
2022-10-08T16:46:42.529Z,22.73
2022-10-08T16:49:16.449Z,23.10
2022-10-08T16:51:48.234Z,22.40
2022-10-08T16:54:18.861Z,22.05
2022-10-08T16:56:47.127Z,19.30
2022-10-08T16:59:17.348Z,19.92
2022-10-08T17:01:46.257Z,19.48
2022-10-08T17:04:15.117Z,21.23
2022-10-08T17:06:43.723Z,19.92
2022-10-08T17:09:11.800Z,20.60
2022-10-08T17:11:41.837Z,19.73
2022-10-08T17:14:11.543Z,19.52
2022-10-08T17:16:39.971Z,21.05
2022-10-08T17:19:07.726Z,21.23
2022-10-08T17:21:35.719Z,19.00
2022-10-08T17:24:03.728Z,20.73
2022-10-08T17:26:32.030Z,20.35
2022-10-08T17:29:05.459Z,21.05
2022-10-08T17:31:33.468Z,19.55
2022-10-08T17:34:02.965Z,19.65
2022-10-08T17:36:32.201Z,19.80
2022-10-08T17:39:01.429Z,19.45
2022-10-08T17:41:30.503Z,20.33
2022-10-08T17:44:00.081Z,20.10
2022-10-08T17:46:30.664Z,19.88
2022-10-08T17:48:58.352Z,21.38
2022-10-08T17:51:28.089Z,21.38
2022-10-08T17:53:57.380Z,21.27
2022-10-08T17:56:26.170Z,24.35
2022-10-08T17:58:54.123Z,23.52
2022-10-08T18:01:25.471Z,21.92
2022-10-08T18:03:56.015Z,21.53
2022-10-08T18:06:25.564Z,20.70
2022-10-08T18:08:55.498Z,21.00
2022-10-08T18:11:23.257Z,20.85
2022-10-08T18:13:51.068Z,20.98
2022-10-08T18:16:19.573Z,21.08
2022-10-08T18:18:48.422Z,19.35
2022-10-08T18:21:18.723Z,18.85
2022-10-08T18:23:46.988Z,18.10
2022-10-08T18:26:17.976Z,17.48
2022-10-08T18:28:45.849Z,18.35
2022-10-08T18:31:14.947Z,17.42
2022-10-08T18:33:44.698Z,18.13
2022-10-08T18:36:14.351Z,17.45
2022-10-08T18:38:45.199Z,16.50
2022-10-08T18:41:14.648Z,18.15
2022-10-08T18:43:42.611Z,18.10
2022-10-08T18:46:10.330Z,18.35
2022-10-08T18:48:38.397Z,17.52
2022-10-08T18:51:07.444Z,18.55
2022-10-08T18:53:35.991Z,19.00
2022-10-08T18:56:08.015Z,18.98
2022-10-08T18:58:35.900Z,20.00
2022-10-08T19:01:03.590Z,20.23
2022-10-08T19:03:31.325Z,22.90
2022-10-08T19:05:58.944Z,21.40
2022-10-08T19:08:26.551Z,21.70
2022-10-08T19:10:54.163Z,21.30
2022-10-08T19:13:23.133Z,21.60
2022-10-08T19:15:50.800Z,22.70
2022-10-08T19:18:18.439Z,22.90
2022-10-08T19:20:46.071Z,24.83
2022-10-08T19:23:13.756Z,23.25
2022-10-08T19:25:41.360Z,22.02
2022-10-08T19:28:09.018Z,21.10
2022-10-08T19:30:38.102Z,23.50
2022-10-08T19:33:05.722Z,52.28
2022-10-08T19:35:33.349Z,39.75
2022-10-08T19:38:00.989Z,30.13
2022-10-08T19:40:28.604Z,25.00
2022-10-08T19:42:56.205Z,23.38
2022-10-08T19:45:23.866Z,24.27
2022-10-08T19:47:52.865Z,24.67
2022-10-08T19:50:20.514Z,31.60
2022-10-08T19:52:51.731Z,37.03
2022-10-08T19:55:19.648Z,34.25
2022-10-08T19:57:47.338Z,55.97
2022-10-08T20:00:15.851Z,66.95
2022-10-08T20:02:43.537Z,48.38
2022-10-08T20:05:12.607Z,26.88
2022-10-08T20:07:40.267Z,23.98
2022-10-08T20:10:08.547Z,24.17
2022-10-08T20:12:36.180Z,23.13
2022-10-08T20:15:04.036Z,21.27
2022-10-08T20:17:31.633Z,22.77
2022-10-08T20:20:20.634Z,22.63
2022-10-08T20:22:48.457Z,22.75
2022-10-08T20:25:19.206Z,24.67
2022-10-08T20:27:46.855Z,23.13
2022-10-08T20:30:15.297Z,22.80
2022-10-08T20:32:42.962Z,25.23
2022-10-08T20:35:10.715Z,22.23
2022-10-08T20:37:38.376Z,20.08
2022-10-08T20:40:08.040Z,20.48
2022-10-08T20:42:36.223Z,19.50
2022-10-08T20:45:04.137Z,21.55
2022-10-08T20:47:31.749Z,21.95
2022-10-08T20:49:59.365Z,22.23
2022-10-08T20:52:26.990Z,20.42
2022-10-08T20:54:54.588Z,21.83
2022-10-08T20:57:23.706Z,22.23
2022-10-08T20:59:51.313Z,20.65
2022-10-08T21:02:19.955Z,22.05
2022-10-08T21:04:47.681Z,21.48
2022-10-08T21:07:15.316Z,21.30
2022-10-08T21:09:42.912Z,25.17
2022-10-08T21:12:10.595Z,20.50
2022-10-08T21:14:39.555Z,21.48
2022-10-08T21:17:07.194Z,24.58
2022-10-08T21:19:34.795Z,22.77
2022-10-08T21:22:02.549Z,21.38
2022-10-08T21:24:30.481Z,23.38
2022-10-08T21:26:58.129Z,23.48
2022-10-08T21:29:25.716Z,23.33
2022-10-08T21:31:54.805Z,23.23
2022-10-08T21:34:22.476Z,25.75
2022-10-08T21:36:50.160Z,19.33
2022-10-08T21:39:18.505Z,16.50
2022-10-08T21:41:46.481Z,16.77
2022-10-08T21:44:14.352Z,15.95
2022-10-08T21:46:43.145Z,15.93
2022-10-08T21:49:14.465Z,15.80
2022-10-08T21:51:42.330Z,15.93
2022-10-08T21:54:11.205Z,15.98
2022-10-08T21:56:39.905Z,14.27
2022-10-08T21:59:09.329Z,13.77
2022-10-08T22:01:38.818Z,14.27
2022-10-08T22:04:08.149Z,15.70
2022-10-08T22:06:38.743Z,14.48
2022-10-08T22:09:07.154Z,15.60
2022-10-08T22:11:35.117Z,14.02
2022-10-08T22:14:02.828Z,14.40
2022-10-08T22:16:30.605Z,14.82
2022-10-08T22:18:58.778Z,15.45
2022-10-08T22:21:26.527Z,14.43
2022-10-08T22:23:55.634Z,15.77
2022-10-08T22:26:25.323Z,14.10
2022-10-08T22:28:52.986Z,14.93
2022-10-08T22:31:21.255Z,14.55
2022-10-08T22:33:49.171Z,13.20
2022-10-08T22:36:19.060Z,12.70
2022-10-08T22:38:47.451Z,13.13
2022-10-08T22:41:18.344Z,12.63
2022-10-08T22:43:46.356Z,12.30
2022-10-08T22:46:16.529Z,12.48
2022-10-08T22:48:44.375Z,12.77
2022-10-08T22:51:14.616Z,12.52
2022-10-08T22:53:42.728Z,12.35
2022-10-08T22:56:12.659Z,11.90
2022-10-08T22:58:41.738Z,12.85
2022-10-08T23:01:10.800Z,12.75
2022-10-08T23:03:39.233Z,13.82
2022-10-08T23:06:08.603Z,14.02
2022-10-08T23:08:37.093Z,12.27
2022-10-08T23:11:05.256Z,13.13
2022-10-08T23:13:33.010Z,12.68
2022-10-08T23:16:03.576Z,12.73
2022-10-08T23:18:32.297Z,12.23
2022-10-08T23:21:02.355Z,12.52
2022-10-08T23:23:30.436Z,12.48
2022-10-08T23:25:59.825Z,12.18
2022-10-08T23:28:27.910Z,12.80
2022-10-08T23:30:55.644Z,12.38
2022-10-08T23:33:24.668Z,12.93
2022-10-08T23:35:56.478Z,12.20
2022-10-08T23:38:24.196Z,11.70
2022-10-08T23:40:52.015Z,11.32
2022-10-08T23:43:19.776Z,13.27
2022-10-08T23:45:47.407Z,11.43
2022-10-08T23:48:15.103Z,11.02
2022-10-08T23:50:44.068Z,11.52
2022-10-08T23:53:11.752Z,11.38
2022-10-08T23:55:39.379Z,11.10
2022-10-08T23:58:06.989Z,10.75
